sensor_id;sensor_type;location;lat;lon;timestamp;temperature;humidity
14995;DHT22;7593;49.006;8.372;2022-11-20T00:01:14;4.70;99.90
14995;DHT22;7593;49.006;8.372;2022-11-20T00:03:41;4.70;99.90
14995;DHT22;7593;49.006;8.372;2022-11-20T00:06:12;4.70;99.90
14995;DHT22;7593;49.006;8.372;2022-11-20T00:08:39;4.70;99.90
14995;DHT22;7593;49.006;8.372;2022-11-20T00:11:07;4.80;99.90
14995;DHT22;7593;49.006;8.372;2022-11-20T00:13:35;4.70;99.90
14995;DHT22;7593;49.006;8.372;2022-11-20T00:16:06;4.70;99.90
14995;DHT22;7593;49.006;8.372;2022-11-20T00:18:34;4.80;99.90
14995;DHT22;7593;49.006;8.372;2022-11-20T00:21:02;4.80;99.90
14995;DHT22;7593;49.006;8.372;2022-11-20T00:23:30;4.80;99.90
14995;DHT22;7593;49.006;8.372;2022-11-20T00:26:01;4.70;99.90
14995;DHT22;7593;49.006;8.372;2022-11-20T00:28:28;4.70;99.90
14995;DHT22;7593;49.006;8.372;2022-11-20T00:31:00;4.70;99.90
14995;DHT22;7593;49.006;8.372;2022-11-20T00:33:28;4.70;99.90
14995;DHT22;7593;49.006;8.372;2022-11-20T00:35:59;4.70;99.90
14995;DHT22;7593;49.006;8.372;2022-11-20T00:38:26;4.70;99.90
14995;DHT22;7593;49.006;8.372;2022-11-20T00:40:56;4.80;99.90
14995;DHT22;7593;49.006;8.372;2022-11-20T00:43:23;4.80;99.90
14995;DHT22;7593;49.006;8.372;2022-11-20T00:45:50;4.80;99.90
14995;DHT22;7593;49.006;8.372;2022-11-20T00:48:17;4.80;99.90
14995;DHT22;7593;49.006;8.372;2022-11-20T00:50:43;4.80;99.90
14995;DHT22;7593;49.006;8.372;2022-11-20T00:53:10;4.80;99.90
14995;DHT22;7593;49.006;8.372;2022-11-20T00:55:37;4.80;99.90
14995;DHT22;7593;49.006;8.372;2022-11-20T00:58:05;4.80;99.90
14995;DHT22;7593;49.006;8.372;2022-11-20T01:00:32;4.80;99.90
14995;DHT22;7593;49.006;8.372;2022-11-20T01:02:59;4.80;99.90
14995;DHT22;7593;49.006;8.372;2022-11-20T01:05:25;4.80;99.90
14995;DHT22;7593;49.006;8.372;2022-11-20T01:07:52;4.80;99.90
14995;DHT22;7593;49.006;8.372;2022-11-20T01:10:19;4.80;99.90
14995;DHT22;7593;49.006;8.372;2022-11-20T01:12:46;4.90;99.90
14995;DHT22;7593;49.006;8.372;2022-11-20T01:15:35;4.90;99.90
14995;DHT22;7593;49.006;8.372;2022-11-20T01:18:02;4.80;99.90
14995;DHT22;7593;49.006;8.372;2022-11-20T01:20:29;4.80;99.90
14995;DHT22;7593;49.006;8.372;2022-11-20T01:22:56;4.80;99.90
14995;DHT22;7593;49.006;8.372;2022-11-20T01:25:23;4.80;99.90
14995;DHT22;7593;49.006;8.372;2022-11-20T01:27:50;4.90;99.90
14995;DHT22;7593;49.006;8.372;2022-11-20T01:30:17;4.90;99.90
14995;DHT22;7593;49.006;8.372;2022-11-20T01:32:45;4.90;99.90
14995;DHT22;7593;49.006;8.372;2022-11-20T01:35:12;5.00;99.90
14995;DHT22;7593;49.006;8.372;2022-11-20T01:37:38;5.00;99.90
14995;DHT22;7593;49.006;8.372;2022-11-20T01:40:06;5.00;99.90
14995;DHT22;7593;49.006;8.372;2022-11-20T01:42:33;5.00;99.90
14995;DHT22;7593;49.006;8.372;2022-11-20T01:45:47;5.00;99.90
14995;DHT22;7593;49.006;8.372;2022-11-20T01:48:22;5.00;99.90
14995;DHT22;7593;49.006;8.372;2022-11-20T01:50:51;5.10;99.90
14995;DHT22;7593;49.006;8.372;2022-11-20T01:53:23;5.10;99.90
14995;DHT22;7593;49.006;8.372;2022-11-20T01:55:53;5.10;99.90
14995;DHT22;7593;49.006;8.372;2022-11-20T01:58:23;5.20;99.90
14995;DHT22;7593;49.006;8.372;2022-11-20T02:00:52;5.30;99.90
14995;DHT22;7593;49.006;8.372;2022-11-20T02:03:21;5.30;99.90
14995;DHT22;7593;49.006;8.372;2022-11-20T02:05:51;5.30;99.90
14995;DHT22;7593;49.006;8.372;2022-11-20T02:08:19;5.40;99.90
14995;DHT22;7593;49.006;8.372;2022-11-20T02:10:46;5.50;99.90
14995;DHT22;7593;49.006;8.372;2022-11-20T02:13:13;5.50;99.90
14995;DHT22;7593;49.006;8.372;2022-11-20T02:15:58;5.60;99.90
14995;DHT22;7593;49.006;8.372;2022-11-20T02:18:26;5.70;99.90
14995;DHT22;7593;49.006;8.372;2022-11-20T02:20:58;5.70;99.90
14995;DHT22;7593;49.006;8.372;2022-11-20T02:23:30;5.80;99.90
14995;DHT22;7593;49.006;8.372;2022-11-20T02:26:01;5.80;99.90
14995;DHT22;7593;49.006;8.372;2022-11-20T02:28:28;5.90;99.90
14995;DHT22;7593;49.006;8.372;2022-11-20T02:30:55;5.90;99.90
14995;DHT22;7593;49.006;8.372;2022-11-20T02:33:22;6.00;99.90
14995;DHT22;7593;49.006;8.372;2022-11-20T02:35:49;6.00;99.90
14995;DHT22;7593;49.006;8.372;2022-11-20T02:38:16;6.10;99.90
14995;DHT22;7593;49.006;8.372;2022-11-20T02:40:43;6.20;99.90
14995;DHT22;7593;49.006;8.372;2022-11-20T02:43:11;6.20;99.90
14995;DHT22;7593;49.006;8.372;2022-11-20T02:45:39;6.30;99.90
14995;DHT22;7593;49.006;8.372;2022-11-20T02:48:06;6.30;99.90
14995;DHT22;7593;49.006;8.372;2022-11-20T02:50:36;6.30;99.90
14995;DHT22;7593;49.006;8.372;2022-11-20T02:53:03;6.40;99.90
14995;DHT22;7593;49.006;8.372;2022-11-20T02:55:30;6.40;99.90
14995;DHT22;7593;49.006;8.372;2022-11-20T02:57:57;6.40;99.90
14995;DHT22;7593;49.006;8.372;2022-11-20T03:00:25;6.40;99.90
14995;DHT22;7593;49.006;8.372;2022-11-20T03:02:52;6.40;99.90
14995;DHT22;7593;49.006;8.372;2022-11-20T03:05:19;6.40;99.90
14995;DHT22;7593;49.006;8.372;2022-11-20T03:07:45;6.40;99.90
14995;DHT22;7593;49.006;8.372;2022-11-20T03:10:12;6.40;99.90
14995;DHT22;7593;49.006;8.372;2022-11-20T03:12:39;6.50;99.90
14995;DHT22;7593;49.006;8.372;2022-11-20T03:15:06;6.50;99.90
14995;DHT22;7593;49.006;8.372;2022-11-20T03:17:35;6.40;99.90
14995;DHT22;7593;49.006;8.372;2022-11-20T03:20:02;6.40;99.90
14995;DHT22;7593;49.006;8.372;2022-11-20T03:22:29;6.50;99.90
14995;DHT22;7593;49.006;8.372;2022-11-20T03:24:56;6.50;99.90
14995;DHT22;7593;49.006;8.372;2022-11-20T03:27:23;6.50;99.90
14995;DHT22;7593;49.006;8.372;2022-11-20T03:29:49;6.50;99.90
14995;DHT22;7593;49.006;8.372;2022-11-20T03:32:16;6.40;99.90
14995;DHT22;7593;49.006;8.372;2022-11-20T03:34:44;6.50;99.90
14995;DHT22;7593;49.006;8.372;2022-11-20T03:37:11;6.50;99.90
14995;DHT22;7593;49.006;8.372;2022-11-20T03:39:38;6.50;99.90
14995;DHT22;7593;49.006;8.372;2022-11-20T03:42:05;6.50;99.90
14995;DHT22;7593;49.006;8.372;2022-11-20T03:44:52;6.50;99.90
14995;DHT22;7593;49.006;8.372;2022-11-20T03:47:19;6.50;99.90
14995;DHT22;7593;49.006;8.372;2022-11-20T03:49:47;6.50;99.90
14995;DHT22;7593;49.006;8.372;2022-11-20T03:52:13;6.50;99.90
14995;DHT22;7593;49.006;8.372;2022-11-20T03:54:40;6.50;99.90
14995;DHT22;7593;49.006;8.372;2022-11-20T03:57:07;6.50;99.90
14995;DHT22;7593;49.006;8.372;2022-11-20T03:59:34;6.40;99.90
14995;DHT22;7593;49.006;8.372;2022-11-20T04:02:01;6.50;99.90
14995;DHT22;7593;49.006;8.372;2022-11-20T04:04:27;6.50;99.90
14995;DHT22;7593;49.006;8.372;2022-11-20T04:06:56;6.50;99.90
14995;DHT22;7593;49.006;8.372;2022-11-20T04:09:22;6.50;99.90
14995;DHT22;7593;49.006;8.372;2022-11-20T04:11:49;6.50;99.90
14995;DHT22;7593;49.006;8.372;2022-11-20T04:14:16;6.50;99.90
14995;DHT22;7593;49.006;8.372;2022-11-20T04:16:43;6.50;99.90
14995;DHT22;7593;49.006;8.372;2022-11-20T04:19:12;6.50;99.90
14995;DHT22;7593;49.006;8.372;2022-11-20T04:21:40;6.50;99.90
14995;DHT22;7593;49.006;8.372;2022-11-20T04:24:08;6.50;99.90
14995;DHT22;7593;49.006;8.372;2022-11-20T04:26:36;6.50;99.90
14995;DHT22;7593;49.006;8.372;2022-11-20T04:29:03;6.50;99.90
14995;DHT22;7593;49.006;8.372;2022-11-20T04:31:32;6.50;99.90
14995;DHT22;7593;49.006;8.372;2022-11-20T04:34:00;6.50;99.90
14995;DHT22;7593;49.006;8.372;2022-11-20T04:36:28;6.50;99.90
14995;DHT22;7593;49.006;8.372;2022-11-20T04:38:56;6.50;99.90
14995;DHT22;7593;49.006;8.372;2022-11-20T04:41:27;6.50;99.90
14995;DHT22;7593;49.006;8.372;2022-11-20T04:43:56;6.50;99.90
14995;DHT22;7593;49.006;8.372;2022-11-20T04:46:25;6.50;99.90
14995;DHT22;7593;49.006;8.372;2022-11-20T04:48:52;6.50;99.90
14995;DHT22;7593;49.006;8.372;2022-11-20T04:51:19;6.50;99.90
14995;DHT22;7593;49.006;8.372;2022-11-20T04:53:46;6.50;99.90
14995;DHT22;7593;49.006;8.372;2022-11-20T04:56:13;6.50;99.90
14995;DHT22;7593;49.006;8.372;2022-11-20T04:58:41;6.50;99.90
14995;DHT22;7593;49.006;8.372;2022-11-20T05:01:11;6.50;99.90
14995;DHT22;7593;49.006;8.372;2022-11-20T05:03:38;6.50;99.90
14995;DHT22;7593;49.006;8.372;2022-11-20T05:06:06;6.50;99.90
14995;DHT22;7593;49.006;8.372;2022-11-20T05:08:33;6.50;99.90
14995;DHT22;7593;49.006;8.372;2022-11-20T05:11:01;6.40;99.90
14995;DHT22;7593;49.006;8.372;2022-11-20T05:13:28;6.40;99.90
14995;DHT22;7593;49.006;8.372;2022-11-20T05:16:01;6.50;99.90
14995;DHT22;7593;49.006;8.372;2022-11-20T05:18:28;6.50;99.90
14995;DHT22;7593;49.006;8.372;2022-11-20T05:20:55;6.40;99.90
14995;DHT22;7593;49.006;8.372;2022-11-20T05:23:23;6.40;99.90
14995;DHT22;7593;49.006;8.372;2022-11-20T05:25:52;6.40;99.90
14995;DHT22;7593;49.006;8.372;2022-11-20T05:28:19;6.40;99.90
14995;DHT22;7593;49.006;8.372;2022-11-20T05:30:46;6.40;99.90
14995;DHT22;7593;49.006;8.372;2022-11-20T05:33:14;6.40;99.90
14995;DHT22;7593;49.006;8.372;2022-11-20T05:35:41;6.40;99.90
14995;DHT22;7593;49.006;8.372;2022-11-20T05:38:08;6.40;99.90
14995;DHT22;7593;49.006;8.372;2022-11-20T05:40:35;6.40;99.90
14995;DHT22;7593;49.006;8.372;2022-11-20T05:43:02;6.40;99.90
14995;DHT22;7593;49.006;8.372;2022-11-20T05:45:29;6.40;99.90
14995;DHT22;7593;49.006;8.372;2022-11-20T05:47:58;6.40;99.90
14995;DHT22;7593;49.006;8.372;2022-11-20T05:50:27;6.30;99.90
14995;DHT22;7593;49.006;8.372;2022-11-20T05:52:54;6.40;99.90
14995;DHT22;7593;49.006;8.372;2022-11-20T05:55:21;6.40;99.90
14995;DHT22;7593;49.006;8.372;2022-11-20T05:57:47;6.40;99.90
14995;DHT22;7593;49.006;8.372;2022-11-20T06:00:15;6.40;99.90
14995;DHT22;7593;49.006;8.372;2022-11-20T06:02:42;6.40;99.90
14995;DHT22;7593;49.006;8.372;2022-11-20T06:05:08;6.40;99.90
14995;DHT22;7593;49.006;8.372;2022-11-20T06:07:37;6.40;99.90
14995;DHT22;7593;49.006;8.372;2022-11-20T06:10:04;6.40;99.90
14995;DHT22;7593;49.006;8.372;2022-11-20T06:12:32;6.40;99.90
14995;DHT22;7593;49.006;8.372;2022-11-20T06:14:59;6.40;99.90
14995;DHT22;7593;49.006;8.372;2022-11-20T06:17:26;6.50;99.90
14995;DHT22;7593;49.006;8.372;2022-11-20T06:19:53;6.50;99.90
14995;DHT22;7593;49.006;8.372;2022-11-20T06:22:19;6.50;99.90
14995;DHT22;7593;49.006;8.372;2022-11-20T06:24:48;6.50;99.90
14995;DHT22;7593;49.006;8.372;2022-11-20T06:27:15;6.50;99.90
14995;DHT22;7593;49.006;8.372;2022-11-20T06:29:41;6.50;99.90
14995;DHT22;7593;49.006;8.372;2022-11-20T06:32:08;6.50;99.90
14995;DHT22;7593;49.006;8.372;2022-11-20T06:34:35;6.60;99.90
14995;DHT22;7593;49.006;8.372;2022-11-20T06:37:02;6.50;99.90
14995;DHT22;7593;49.006;8.372;2022-11-20T06:39:29;6.50;99.90
14995;DHT22;7593;49.006;8.372;2022-11-20T06:41:57;6.60;99.90
14995;DHT22;7593;49.006;8.372;2022-11-20T06:44:24;6.60;99.90
14995;DHT22;7593;49.006;8.372;2022-11-20T06:46:51;6.60;99.90
14995;DHT22;7593;49.006;8.372;2022-11-20T06:49:18;6.60;99.90
14995;DHT22;7593;49.006;8.372;2022-11-20T06:51:45;6.60;99.90
14995;DHT22;7593;49.006;8.372;2022-11-20T06:54:12;6.70;99.90
14995;DHT22;7593;49.006;8.372;2022-11-20T06:56:39;6.70;99.90
14995;DHT22;7593;49.006;8.372;2022-11-20T06:59:07;6.70;99.90
14995;DHT22;7593;49.006;8.372;2022-11-20T07:01:34;6.70;99.90
14995;DHT22;7593;49.006;8.372;2022-11-20T07:04:01;6.70;99.90
14995;DHT22;7593;49.006;8.372;2022-11-20T07:06:28;6.70;99.90
14995;DHT22;7593;49.006;8.372;2022-11-20T07:08:55;6.80;99.90
14995;DHT22;7593;49.006;8.372;2022-11-20T07:11:22;6.80;99.90
14995;DHT22;7593;49.006;8.372;2022-11-20T07:13:50;6.80;99.90
14995;DHT22;7593;49.006;8.372;2022-11-20T07:16:18;6.80;99.90
14995;DHT22;7593;49.006;8.372;2022-11-20T07:18:45;6.80;99.90
14995;DHT22;7593;49.006;8.372;2022-11-20T07:21:12;6.80;99.90
14995;DHT22;7593;49.006;8.372;2022-11-20T07:23:38;6.80;99.90
14995;DHT22;7593;49.006;8.372;2022-11-20T07:26:06;6.70;99.90
14995;DHT22;7593;49.006;8.372;2022-11-20T07:28:33;6.70;99.90
14995;DHT22;7593;49.006;8.372;2022-11-20T07:31:01;6.70;99.90
14995;DHT22;7593;49.006;8.372;2022-11-20T07:33:29;6.70;99.90
14995;DHT22;7593;49.006;8.372;2022-11-20T07:35:57;6.70;99.90
14995;DHT22;7593;49.006;8.372;2022-11-20T07:38:24;6.70;99.90
14995;DHT22;7593;49.006;8.372;2022-11-20T07:40:53;6.70;99.90
14995;DHT22;7593;49.006;8.372;2022-11-20T07:43:20;6.70;99.90
14995;DHT22;7593;49.006;8.372;2022-11-20T07:45:47;6.60;99.90
14995;DHT22;7593;49.006;8.372;2022-11-20T07:48:14;6.60;99.90
14995;DHT22;7593;49.006;8.372;2022-11-20T07:50:42;6.60;99.90
14995;DHT22;7593;49.006;8.372;2022-11-20T07:53:09;6.60;99.90
14995;DHT22;7593;49.006;8.372;2022-11-20T07:55:37;6.60;99.90
14995;DHT22;7593;49.006;8.372;2022-11-20T07:58:04;6.60;99.90
14995;DHT22;7593;49.006;8.372;2022-11-20T08:00:31;6.60;99.90
14995;DHT22;7593;49.006;8.372;2022-11-20T08:02:58;6.60;99.90
14995;DHT22;7593;49.006;8.372;2022-11-20T08:05:25;6.50;99.90
14995;DHT22;7593;49.006;8.372;2022-11-20T08:07:53;6.60;99.90
14995;DHT22;7593;49.006;8.372;2022-11-20T08:10:20;6.60;99.90
14995;DHT22;7593;49.006;8.372;2022-11-20T08:12:47;6.60;99.90
14995;DHT22;7593;49.006;8.372;2022-11-20T08:15:32;6.60;99.90
14995;DHT22;7593;49.006;8.372;2022-11-20T08:18:01;6.60;99.90
14995;DHT22;7593;49.006;8.372;2022-11-20T08:20:28;6.60;99.90
14995;DHT22;7593;49.006;8.372;2022-11-20T08:22:59;6.60;99.90
14995;DHT22;7593;49.006;8.372;2022-11-20T08:25:27;6.70;99.90
14995;DHT22;7593;49.006;8.372;2022-11-20T08:27:56;6.70;99.90
14995;DHT22;7593;49.006;8.372;2022-11-20T08:30:23;6.70;99.90
14995;DHT22;7593;49.006;8.372;2022-11-20T08:32:49;6.80;99.90
14995;DHT22;7593;49.006;8.372;2022-11-20T08:35:16;6.80;99.90
14995;DHT22;7593;49.006;8.372;2022-11-20T08:37:46;6.80;99.90
14995;DHT22;7593;49.006;8.372;2022-11-20T08:40:14;6.80;99.90
14995;DHT22;7593;49.006;8.372;2022-11-20T08:42:46;6.80;99.90
14995;DHT22;7593;49.006;8.372;2022-11-20T08:45:13;6.90;99.90
14995;DHT22;7593;49.006;8.372;2022-11-20T08:47:40;6.90;99.90
14995;DHT22;7593;49.006;8.372;2022-11-20T08:50:08;7.00;99.90
14995;DHT22;7593;49.006;8.372;2022-11-20T08:52:35;6.90;99.90
14995;DHT22;7593;49.006;8.372;2022-11-20T08:55:02;7.00;99.90
14995;DHT22;7593;49.006;8.372;2022-11-20T08:57:32;7.00;99.90
14995;DHT22;7593;49.006;8.372;2022-11-20T08:59:59;7.10;99.90
14995;DHT22;7593;49.006;8.372;2022-11-20T09:02:26;7.10;99.90
14995;DHT22;7593;49.006;8.372;2022-11-20T09:04:53;7.10;99.90
14995;DHT22;7593;49.006;8.372;2022-11-20T09:07:20;7.10;99.90
14995;DHT22;7593;49.006;8.372;2022-11-20T09:09:47;7.10;99.90
14995;DHT22;7593;49.006;8.372;2022-11-20T09:12:14;7.10;99.90
14995;DHT22;7593;49.006;8.372;2022-11-20T09:14:42;7.10;99.90
14995;DHT22;7593;49.006;8.372;2022-11-20T09:17:10;7.10;99.90
14995;DHT22;7593;49.006;8.372;2022-11-20T09:19:39;7.10;99.90
14995;DHT22;7593;49.006;8.372;2022-11-20T09:22:06;7.10;99.90
14995;DHT22;7593;49.006;8.372;2022-11-20T09:24:33;7.20;99.90
14995;DHT22;7593;49.006;8.372;2022-11-20T09:27:02;7.20;99.90
14995;DHT22;7593;49.006;8.372;2022-11-20T09:29:29;7.20;99.90
14995;DHT22;7593;49.006;8.372;2022-11-20T09:31:57;7.20;99.90
14995;DHT22;7593;49.006;8.372;2022-11-20T09:34:24;7.20;99.90
14995;DHT22;7593;49.006;8.372;2022-11-20T09:36:51;7.30;99.90
14995;DHT22;7593;49.006;8.372;2022-11-20T09:39:18;7.20;99.90
14995;DHT22;7593;49.006;8.372;2022-11-20T09:42:14;7.10;99.90
14995;DHT22;7593;49.006;8.372;2022-11-20T09:44:56;7.00;99.90
14995;DHT22;7593;49.006;8.372;2022-11-20T09:47:35;6.90;99.90
14995;DHT22;7593;49.006;8.372;2022-11-20T09:50:19;6.90;99.90
14995;DHT22;7593;49.006;8.372;2022-11-20T09:52:59;6.90;99.90
14995;DHT22;7593;49.006;8.372;2022-11-20T09:55:28;6.80;99.90
14995;DHT22;7593;49.006;8.372;2022-11-20T09:57:58;6.80;99.90
14995;DHT22;7593;49.006;8.372;2022-11-20T10:00:26;6.90;99.90
14995;DHT22;7593;49.006;8.372;2022-11-20T10:02:57;6.90;99.90
14995;DHT22;7593;49.006;8.372;2022-11-20T10:05:28;6.90;99.90
14995;DHT22;7593;49.006;8.372;2022-11-20T10:08:04;6.90;99.90
14995;DHT22;7593;49.006;8.372;2022-11-20T10:10:38;6.80;99.90
14995;DHT22;7593;49.006;8.372;2022-11-20T10:13:20;6.90;99.90
14995;DHT22;7593;49.006;8.372;2022-11-20T10:16:00;6.90;99.90
14995;DHT22;7593;49.006;8.372;2022-11-20T10:18:48;6.80;99.90
14995;DHT22;7593;49.006;8.372;2022-11-20T10:21:26;6.90;99.90
14995;DHT22;7593;49.006;8.372;2022-11-20T10:24:07;6.90;99.90
14995;DHT22;7593;49.006;8.372;2022-11-20T10:26:44;7.10;99.90
14995;DHT22;7593;49.006;8.372;2022-11-20T10:29:16;7.20;99.90
14995;DHT22;7593;49.006;8.372;2022-11-20T10:31:45;7.30;99.90
14995;DHT22;7593;49.006;8.372;2022-11-20T10:34:20;7.60;99.90
14995;DHT22;7593;49.006;8.372;2022-11-20T10:36:52;7.70;99.90
14995;DHT22;7593;49.006;8.372;2022-11-20T10:39:26;7.90;99.90
14995;DHT22;7593;49.006;8.372;2022-11-20T10:41:56;8.00;99.90
14995;DHT22;7593;49.006;8.372;2022-11-20T10:44:27;8.10;99.90
14995;DHT22;7593;49.006;8.372;2022-11-20T10:47:14;8.10;99.90
14995;DHT22;7593;49.006;8.372;2022-11-20T10:49:43;7.90;99.90
14995;DHT22;7593;49.006;8.372;2022-11-20T10:52:18;7.80;99.90
14995;DHT22;7593;49.006;8.372;2022-11-20T10:54:53;7.70;99.90
14995;DHT22;7593;49.006;8.372;2022-11-20T10:57:44;7.70;99.90
14995;DHT22;7593;49.006;8.372;2022-11-20T11:00:13;7.60;99.90
14995;DHT22;7593;49.006;8.372;2022-11-20T11:02:45;7.60;99.90
14995;DHT22;7593;49.006;8.372;2022-11-20T11:05:22;7.60;99.90
14995;DHT22;7593;49.006;8.372;2022-11-20T11:07:51;7.70;99.90
14995;DHT22;7593;49.006;8.372;2022-11-20T11:10:21;7.70;99.90
14995;DHT22;7593;49.006;8.372;2022-11-20T11:12:49;7.90;99.90
14995;DHT22;7593;49.006;8.372;2022-11-20T11:15:25;8.00;99.90
14995;DHT22;7593;49.006;8.372;2022-11-20T11:17:53;8.10;99.90
14995;DHT22;7593;49.006;8.372;2022-11-20T11:20:23;8.20;99.90
14995;DHT22;7593;49.006;8.372;2022-11-20T11:22:51;8.30;99.90
14995;DHT22;7593;49.006;8.372;2022-11-20T11:25:26;8.40;99.90
14995;DHT22;7593;49.006;8.372;2022-11-20T11:27:55;8.60;99.90
14995;DHT22;7593;49.006;8.372;2022-11-20T11:30:23;8.60;99.90
14995;DHT22;7593;49.006;8.372;2022-11-20T11:32:50;8.70;99.90
14995;DHT22;7593;49.006;8.372;2022-11-20T11:35:29;8.60;99.90
14995;DHT22;7593;49.006;8.372;2022-11-20T11:38:04;8.70;99.90
14995;DHT22;7593;49.006;8.372;2022-11-20T11:40:35;8.70;99.90
14995;DHT22;7593;49.006;8.372;2022-11-20T11:43:05;8.80;99.90
14995;DHT22;7593;49.006;8.372;2022-11-20T11:45:54;8.80;99.90
14995;DHT22;7593;49.006;8.372;2022-11-20T11:48:20;8.80;99.90
14995;DHT22;7593;49.006;8.372;2022-11-20T11:50:50;8.80;99.90
14995;DHT22;7593;49.006;8.372;2022-11-20T11:53:18;8.80;99.90
14995;DHT22;7593;49.006;8.372;2022-11-20T11:55:49;8.80;99.90
14995;DHT22;7593;49.006;8.372;2022-11-20T11:58:34;8.80;99.90
14995;DHT22;7593;49.006;8.372;2022-11-20T12:01:12;8.80;99.90
14995;DHT22;7593;49.006;8.372;2022-11-20T12:03:51;8.90;99.90
14995;DHT22;7593;49.006;8.372;2022-11-20T12:06:21;9.30;99.90
14995;DHT22;7593;49.006;8.372;2022-11-20T12:08:51;9.40;99.90
14995;DHT22;7593;49.006;8.372;2022-11-20T12:11:24;9.70;99.90
14995;DHT22;7593;49.006;8.372;2022-11-20T12:13:58;9.90;99.90
14995;DHT22;7593;49.006;8.372;2022-11-20T12:16:30;10.30;99.90
14995;DHT22;7593;49.006;8.372;2022-11-20T12:19:01;10.80;99.90
14995;DHT22;7593;49.006;8.372;2022-11-20T12:21:36;11.10;99.90
14995;DHT22;7593;49.006;8.372;2022-11-20T12:27:21;11.50;99.90
14995;DHT22;7593;49.006;8.372;2022-11-20T12:29:59;11.80;99.90
14995;DHT22;7593;49.006;8.372;2022-11-20T12:32:43;11.60;99.90
14995;DHT22;7593;49.006;8.372;2022-11-20T12:35:30;11.30;99.90
14995;DHT22;7593;49.006;8.372;2022-11-20T12:38:12;11.10;99.90
14995;DHT22;7593;49.006;8.372;2022-11-20T12:40:50;10.90;99.90
14995;DHT22;7593;49.006;8.372;2022-11-20T12:43:23;11.00;99.90
14995;DHT22;7593;49.006;8.372;2022-11-20T12:46:21;11.30;99.90
14995;DHT22;7593;49.006;8.372;2022-11-20T12:49:02;11.50;99.90
14995;DHT22;7593;49.006;8.372;2022-11-20T12:52:00;11.60;99.90
14995;DHT22;7593;49.006;8.372;2022-11-20T12:54:48;11.70;99.90
14995;DHT22;7593;49.006;8.372;2022-11-20T12:57:24;11.90;99.90
14995;DHT22;7593;49.006;8.372;2022-11-20T13:00:06;11.90;99.90
14995;DHT22;7593;49.006;8.372;2022-11-20T13:02:52;11.90;99.90
14995;DHT22;7593;49.006;8.372;2022-11-20T13:05:30;11.80;99.90
14995;DHT22;7593;49.006;8.372;2022-11-20T13:07:58;11.50;99.90
14995;DHT22;7593;49.006;8.372;2022-11-20T13:10:33;11.20;99.90
14995;DHT22;7593;49.006;8.372;2022-11-20T13:13:05;10.90;99.90
14995;DHT22;7593;49.006;8.372;2022-11-20T13:15:45;10.80;99.90
14995;DHT22;7593;49.006;8.372;2022-11-20T13:18:15;11.00;99.90
14995;DHT22;7593;49.006;8.372;2022-11-20T13:20:44;11.30;99.90
14995;DHT22;7593;49.006;8.372;2022-11-20T13:23:11;11.40;99.90
14995;DHT22;7593;49.006;8.372;2022-11-20T13:25:40;11.50;99.90
14995;DHT22;7593;49.006;8.372;2022-11-20T13:28:26;11.60;99.90
14995;DHT22;7593;49.006;8.372;2022-11-20T13:30:55;11.30;99.90
14995;DHT22;7593;49.006;8.372;2022-11-20T13:33:25;11.10;99.90
14995;DHT22;7593;49.006;8.372;2022-11-20T13:35:59;10.90;99.90
14995;DHT22;7593;49.006;8.372;2022-11-20T13:38:26;10.70;99.90
14995;DHT22;7593;49.006;8.372;2022-11-20T13:40:56;10.60;99.90
14995;DHT22;7593;49.006;8.372;2022-11-20T13:43:32;10.60;99.90
14995;DHT22;7593;49.006;8.372;2022-11-20T13:46:01;10.80;99.90
14995;DHT22;7593;49.006;8.372;2022-11-20T13:48:31;11.00;99.90
14995;DHT22;7593;49.006;8.372;2022-11-20T13:51:20;11.20;99.90
14995;DHT22;7593;49.006;8.372;2022-11-20T13:54:18;11.50;99.90
14995;DHT22;7593;49.006;8.372;2022-11-20T13:56:59;11.50;99.90
14995;DHT22;7593;49.006;8.372;2022-11-20T13:59:44;11.20;99.90
14995;DHT22;7593;49.006;8.372;2022-11-20T14:02:15;10.80;99.90
14995;DHT22;7593;49.006;8.372;2022-11-20T14:04:45;10.60;99.90
14995;DHT22;7593;49.006;8.372;2022-11-20T14:07:13;10.60;99.90
14995;DHT22;7593;49.006;8.372;2022-11-20T14:09:49;10.60;99.90
14995;DHT22;7593;49.006;8.372;2022-11-20T14:12:20;10.50;99.90
14995;DHT22;7593;49.006;8.372;2022-11-20T14:14:49;10.30;99.90
14995;DHT22;7593;49.006;8.372;2022-11-20T14:17:20;10.10;99.90
14995;DHT22;7593;49.006;8.372;2022-11-20T14:19:48;9.90;99.90
14995;DHT22;7593;49.006;8.372;2022-11-20T14:22:21;9.80;99.90
14995;DHT22;7593;49.006;8.372;2022-11-20T14:24:49;9.70;99.90
14995;DHT22;7593;49.006;8.372;2022-11-20T14:27:28;9.70;99.90
14995;DHT22;7593;49.006;8.372;2022-11-20T14:29:55;9.60;99.90
14995;DHT22;7593;49.006;8.372;2022-11-20T14:32:27;9.60;99.90
14995;DHT22;7593;49.006;8.372;2022-11-20T14:34:54;9.50;99.90
14995;DHT22;7593;49.006;8.372;2022-11-20T14:37:25;9.50;99.90
14995;DHT22;7593;49.006;8.372;2022-11-20T14:39:55;9.40;99.90
14995;DHT22;7593;49.006;8.372;2022-11-20T14:42:25;9.30;99.90
14995;DHT22;7593;49.006;8.372;2022-11-20T14:44:56;9.30;99.90
14995;DHT22;7593;49.006;8.372;2022-11-20T14:47:26;9.30;99.90
14995;DHT22;7593;49.006;8.372;2022-11-20T14:49:54;9.20;99.90
14995;DHT22;7593;49.006;8.372;2022-11-20T14:52:23;9.20;99.90
14995;DHT22;7593;49.006;8.372;2022-11-20T14:54:51;9.10;99.90
14995;DHT22;7593;49.006;8.372;2022-11-20T14:57:24;9.10;99.90
14995;DHT22;7593;49.006;8.372;2022-11-20T14:59:51;9.10;99.90
14995;DHT22;7593;49.006;8.372;2022-11-20T15:02:30;9.00;99.90
14995;DHT22;7593;49.006;8.372;2022-11-20T15:04:59;9.00;99.90
14995;DHT22;7593;49.006;8.372;2022-11-20T15:07:30;8.90;99.90
14995;DHT22;7593;49.006;8.372;2022-11-20T15:10:01;8.90;99.90
14995;DHT22;7593;49.006;8.372;2022-11-20T15:12:29;8.90;99.90
14995;DHT22;7593;49.006;8.372;2022-11-20T15:14:56;8.90;99.90
14995;DHT22;7593;49.006;8.372;2022-11-20T15:17:23;8.80;99.90
14995;DHT22;7593;49.006;8.372;2022-11-20T15:19:52;8.80;99.90
14995;DHT22;7593;49.006;8.372;2022-11-20T15:22:19;8.80;99.90
14995;DHT22;7593;49.006;8.372;2022-11-20T15:24:46;8.70;99.90
14995;DHT22;7593;49.006;8.372;2022-11-20T15:27:13;8.70;99.90
14995;DHT22;7593;49.006;8.372;2022-11-20T15:29:41;8.70;99.90
14995;DHT22;7593;49.006;8.372;2022-11-20T15:32:08;8.70;99.90
14995;DHT22;7593;49.006;8.372;2022-11-20T15:34:35;8.60;99.90
14995;DHT22;7593;49.006;8.372;2022-11-20T15:37:03;8.60;99.90
14995;DHT22;7593;49.006;8.372;2022-11-20T15:39:30;8.60;99.90
14995;DHT22;7593;49.006;8.372;2022-11-20T15:41:57;8.60;99.90
14995;DHT22;7593;49.006;8.372;2022-11-20T15:44:24;8.60;99.90
14995;DHT22;7593;49.006;8.372;2022-11-20T15:46:51;8.60;99.90
14995;DHT22;7593;49.006;8.372;2022-11-20T15:49:17;8.60;99.90
14995;DHT22;7593;49.006;8.372;2022-11-20T15:51:49;8.60;99.90
14995;DHT22;7593;49.006;8.372;2022-11-20T15:54:20;8.50;99.90
14995;DHT22;7593;49.006;8.372;2022-11-20T15:56:47;8.50;99.90
14995;DHT22;7593;49.006;8.372;2022-11-20T15:59:14;8.50;99.90
14995;DHT22;7593;49.006;8.372;2022-11-20T16:01:42;8.50;99.90
14995;DHT22;7593;49.006;8.372;2022-11-20T16:04:10;8.50;99.90
14995;DHT22;7593;49.006;8.372;2022-11-20T16:06:37;8.50;99.90
14995;DHT22;7593;49.006;8.372;2022-11-20T16:09:04;8.50;99.90
14995;DHT22;7593;49.006;8.372;2022-11-20T16:11:33;8.50;99.90
14995;DHT22;7593;49.006;8.372;2022-11-20T16:14:00;8.50;99.90
14995;DHT22;7593;49.006;8.372;2022-11-20T16:16:45;8.50;99.90
14995;DHT22;7593;49.006;8.372;2022-11-20T16:19:12;8.50;99.90
14995;DHT22;7593;49.006;8.372;2022-11-20T16:21:39;8.50;99.90